New Breman, New York
Current Conditions -  °F | °C
As of 11:21 AM on Tuesday 21 Oct 2014 (Local Time) from KGTB Reporting Station
Drizzle Drizzle  
Wind Chill: 45°   Ceiling: 3300
Heat Index: 48°   Visibility: 10mi
Dew Point: 46°   Wind: 8mph
Humidity: 93%   Direction: 80°E
Pressure: 29.89"   Gusts: NA
Location:  43.7565°N, 75.5938°W
Report Text: KGTB 211521Z AUTO 08007KT 10SM -DZ OVC033 09/08 A2989 RMK AO2 DZB1521
Loading
Personal Weather Stations






























Interactive Weather Map
Tropical Storm Tracking
New forecast layout! Learn more

10-Day Weather Forecast

Advertisements
Track Severe Weather on mobile